createdAt,value
2023-03-06T00:01:47.875Z,39.64
2023-03-06T00:04:14.968Z,39.47
2023-03-06T00:06:40.836Z,39.52
2023-03-06T00:09:07.004Z,39.56
2023-03-06T00:11:32.653Z,39.65
2023-03-06T00:13:58.350Z,39.63
2023-03-06T00:16:24.104Z,39.57
2023-03-06T00:18:50.062Z,39.65
2023-03-06T00:21:15.711Z,39.73
2023-03-06T00:23:41.374Z,39.64
2023-03-06T00:26:07.995Z,39.48
2023-03-06T00:28:34.282Z,39.58
2023-03-06T00:31:00.504Z,39.57
2023-03-06T00:33:26.140Z,39.54
2023-03-06T00:35:51.856Z,39.66
2023-03-06T00:38:17.501Z,39.74
2023-03-06T00:40:43.340Z,39.63
2023-03-06T00:43:09.203Z,39.64
2023-03-06T00:45:34.983Z,39.45
2023-03-06T00:48:00.659Z,39.61
2023-03-06T00:50:26.324Z,39.65
2023-03-06T00:52:51.960Z,39.59
2023-03-06T00:55:17.680Z,39.67
2023-03-06T00:57:43.317Z,39.51
2023-03-06T01:00:10.236Z,39.62
2023-03-06T01:02:35.976Z,39.65
2023-03-06T01:05:01.779Z,39.59
2023-03-06T01:07:27.777Z,39.34
2023-03-06T01:09:53.509Z,39.63
2023-03-06T01:12:20.473Z,39.72
2023-03-06T01:14:47.050Z,39.65
2023-03-06T01:17:13.281Z,39.70
2023-03-06T01:19:38.949Z,39.64
2023-03-06T01:22:04.619Z,39.46
2023-03-06T01:24:30.260Z,39.55
2023-03-06T01:26:55.906Z,39.63
2023-03-06T01:29:21.570Z,39.77
2023-03-06T01:31:47.251Z,39.51
2023-03-06T01:34:12.977Z,39.54
2023-03-06T01:36:38.621Z,39.63
2023-03-06T01:39:04.264Z,39.45
2023-03-06T01:41:31.770Z,39.64
2023-03-06T01:43:57.459Z,39.71
2023-03-06T01:46:41.472Z,39.63
2023-03-06T01:49:12.224Z,39.47
2023-03-06T01:51:40.721Z,39.48
2023-03-06T01:54:08.360Z,39.67
2023-03-06T01:56:34.299Z,39.56
2023-03-06T01:59:00.693Z,39.43
2023-03-06T02:01:26.476Z,39.53
2023-03-06T02:03:52.340Z,39.62
2023-03-06T02:06:20.901Z,39.45
2023-03-06T02:08:49.219Z,39.69
2023-03-06T02:11:17.412Z,39.69
2023-03-06T02:13:44.252Z,39.59
2023-03-06T02:16:10.765Z,39.49
2023-03-06T02:18:37.573Z,39.51
2023-03-06T02:21:06.837Z,39.50
2023-03-06T02:23:44.366Z,39.48
2023-03-06T02:26:10.644Z,39.46
2023-03-06T02:28:36.306Z,39.46
2023-03-06T02:31:02.013Z,39.40
2023-03-06T02:33:28.430Z,39.66
2023-03-06T02:35:57.694Z,39.40
2023-03-06T02:38:27.075Z,39.31
2023-03-06T02:40:52.958Z,39.59
2023-03-06T02:43:24.765Z,39.54
2023-03-06T02:45:51.065Z,39.64
2023-03-06T02:48:17.782Z,39.29
2023-03-06T02:50:44.184Z,39.34
2023-03-06T02:53:12.206Z,39.31
2023-03-06T02:55:38.468Z,39.55
2023-03-06T02:58:04.702Z,39.62
2023-03-06T03:00:31.122Z,39.38
2023-03-06T03:02:56.852Z,39.60
2023-03-06T03:05:22.655Z,39.62
2023-03-06T03:07:48.300Z,39.41
2023-03-06T03:10:14.259Z,39.31
2023-03-06T03:12:40.516Z,39.45
2023-03-06T03:15:06.697Z,39.56
2023-03-06T03:17:35.050Z,39.43
2023-03-06T03:20:00.699Z,39.46
2023-03-06T03:22:26.336Z,39.63
2023-03-06T03:24:52.097Z,39.39
2023-03-06T03:27:17.802Z,39.51
2023-03-06T03:29:43.539Z,39.56
2023-03-06T03:32:09.350Z,39.65
2023-03-06T03:34:35.064Z,39.32
2023-03-06T03:37:00.697Z,39.44
2023-03-06T03:39:26.358Z,39.40
2023-03-06T03:41:51.999Z,39.56
2023-03-06T03:44:17.662Z,39.63
2023-03-06T03:46:43.347Z,39.47
2023-03-06T03:49:09.028Z,39.44
2023-03-06T03:51:34.764Z,39.30
2023-03-06T03:54:00.486Z,39.65
2023-03-06T03:56:26.278Z,39.45
2023-03-06T03:58:52.001Z,39.60
2023-03-06T04:01:17.707Z,39.43
2023-03-06T04:03:43.381Z,39.41
2023-03-06T04:06:09.328Z,39.26
2023-03-06T04:08:35.017Z,39.43
2023-03-06T04:11:00.723Z,39.41
2023-03-06T04:13:26.551Z,39.50
2023-03-06T04:15:54.067Z,39.41
2023-03-06T04:18:20.589Z,39.74
2023-03-06T04:20:46.851Z,39.48
2023-03-06T04:23:13.062Z,39.29
2023-03-06T04:25:38.762Z,39.45
2023-03-06T04:28:05.017Z,39.47
2023-03-06T04:30:30.975Z,39.54
2023-03-06T04:32:56.845Z,39.50
2023-03-06T04:35:22.517Z,39.54
2023-03-06T04:37:48.283Z,39.55
2023-03-06T04:40:19.549Z,39.50
2023-03-06T04:42:45.438Z,39.43
2023-03-06T04:45:11.207Z,39.47
2023-03-06T04:47:36.873Z,39.27
2023-03-06T04:50:03.623Z,39.51
2023-03-06T04:52:29.334Z,39.22
2023-03-06T04:54:55.037Z,39.18
2023-03-06T04:57:21.271Z,39.38
2023-03-06T04:59:47.393Z,39.56
2023-03-06T05:02:13.086Z,39.51
2023-03-06T05:04:38.753Z,39.41
2023-03-06T05:07:04.423Z,39.34
2023-03-06T05:09:30.088Z,39.33
2023-03-06T05:11:55.747Z,39.39
2023-03-06T05:14:21.400Z,39.24
2023-03-06T05:16:47.071Z,39.63
2023-03-06T05:19:12.746Z,39.47
2023-03-06T05:21:38.429Z,39.50
2023-03-06T05:24:04.254Z,39.24
2023-03-06T05:26:29.917Z,39.24
2023-03-06T05:28:55.579Z,39.31
2023-03-06T05:31:21.341Z,39.35
2023-03-06T05:33:47.004Z,39.50
2023-03-06T05:36:12.706Z,39.52
2023-03-06T05:38:38.364Z,39.49
2023-03-06T05:41:04.280Z,39.30
2023-03-06T05:43:29.915Z,39.24
2023-03-06T05:46:04.233Z,39.40
2023-03-06T05:48:30.479Z,39.33
2023-03-06T05:50:57.453Z,39.28
2023-03-06T05:53:23.452Z,39.54
2023-03-06T05:55:55.566Z,39.44
2023-03-06T05:58:21.203Z,39.54
2023-03-06T06:00:46.850Z,39.38
2023-03-06T06:03:12.508Z,39.24
2023-03-06T06:05:38.989Z,39.42
2023-03-06T06:08:04.696Z,39.29
2023-03-06T06:10:30.346Z,39.22
2023-03-06T06:12:56.000Z,39.49
2023-03-06T06:15:21.658Z,39.31
2023-03-06T06:17:47.292Z,39.38
2023-03-06T06:20:13.467Z,39.41
2023-03-06T06:22:39.106Z,39.52
2023-03-06T06:25:05.792Z,39.57
2023-03-06T06:27:31.517Z,39.28
2023-03-06T06:29:57.162Z,39.57
2023-03-06T06:32:22.853Z,39.38
2023-03-06T06:34:48.523Z,39.51
2023-03-06T06:37:15.308Z,39.69
2023-03-06T06:39:40.986Z,39.41
2023-03-06T06:42:28.924Z,39.43
2023-03-06T06:44:53.322Z,39.31
2023-03-06T06:47:22.743Z,39.56
2023-03-06T06:49:51.934Z,39.57
2023-03-06T06:52:17.915Z,39.56
2023-03-06T06:54:44.006Z,39.38
2023-03-06T06:57:10.899Z,39.68
2023-03-06T06:59:36.752Z,39.27
2023-03-06T07:02:02.405Z,39.67
2023-03-06T07:04:28.080Z,39.47
2023-03-06T07:06:57.308Z,39.56
2023-03-06T07:09:23.344Z,39.52
2023-03-06T07:11:49.441Z,39.40
2023-03-06T07:14:15.151Z,39.63
2023-03-06T07:16:40.812Z,39.66
2023-03-06T07:19:06.852Z,39.31
2023-03-06T07:21:32.612Z,39.52
2023-03-06T07:23:58.297Z,39.63
2023-03-06T07:26:24.979Z,39.59
2023-03-06T07:28:53.138Z,39.44
2023-03-06T07:31:21.363Z,39.36
2023-03-06T07:33:48.347Z,39.66
2023-03-06T07:36:14.255Z,39.49
2023-03-06T07:38:40.031Z,39.43
2023-03-06T07:41:08.760Z,39.65
2023-03-06T07:43:34.520Z,39.60
2023-03-06T07:46:00.378Z,39.47
2023-03-06T07:48:26.673Z,39.45
2023-03-06T07:50:56.945Z,39.45
2023-03-06T07:53:23.854Z,40.16
2023-03-06T07:55:49.807Z,40.63
2023-03-06T07:58:15.476Z,40.58
2023-03-06T08:00:41.180Z,40.62
2023-03-06T08:03:08.912Z,40.38
2023-03-06T08:05:34.598Z,40.36
2023-03-06T08:08:00.235Z,40.47
2023-03-06T08:10:25.923Z,40.54
2023-03-06T08:12:51.587Z,40.42
2023-03-06T08:15:17.273Z,40.21
2023-03-06T08:17:43.148Z,40.45
2023-03-06T08:20:09.730Z,40.26
2023-03-06T08:22:36.032Z,40.28
2023-03-06T08:25:01.900Z,40.36
2023-03-06T08:27:27.581Z,40.23
2023-03-06T08:29:53.233Z,40.06
2023-03-06T08:32:18.975Z,40.13
2023-03-06T08:34:44.805Z,40.13
2023-03-06T08:37:10.757Z,40.15
2023-03-06T08:39:36.425Z,39.99
2023-03-06T08:42:02.064Z,40.25
2023-03-06T08:44:27.733Z,40.17
2023-03-06T08:46:53.389Z,39.94
2023-03-06T08:49:19.239Z,40.06
2023-03-06T08:51:44.909Z,40.04
2023-03-06T08:54:12.086Z,40.32
2023-03-06T08:56:37.936Z,40.17
2023-03-06T08:59:04.721Z,39.92
2023-03-06T09:01:34.210Z,39.91
2023-03-06T09:04:01.596Z,40.03
2023-03-06T09:06:30.206Z,39.64
2023-03-06T09:08:56.237Z,40.05
2023-03-06T09:11:24.108Z,39.87
2023-03-06T09:13:50.602Z,40.06
2023-03-06T09:16:16.461Z,39.97
2023-03-06T09:18:42.177Z,39.99
2023-03-06T09:21:08.644Z,39.58
2023-03-06T09:23:35.118Z,40.13
2023-03-06T09:26:01.344Z,39.97
2023-03-06T09:28:27.080Z,40.27
2023-03-06T09:30:53.040Z,40.19
2023-03-06T09:33:19.336Z,39.87
2023-03-06T09:35:54.231Z,40.01
2023-03-06T09:38:22.649Z,40.17
2023-03-06T09:44:05.334Z,40.18
2023-03-06T09:47:10.834Z,40.22
2023-03-06T09:49:42.385Z,39.43
2023-03-06T09:52:30.496Z,39.91
2023-03-06T09:55:07.054Z,40.44
2023-03-06T09:57:36.202Z,40.18
2023-03-06T10:00:06.667Z,40.02
2023-03-06T10:02:38.087Z,40.02
2023-03-06T10:05:06.121Z,39.90
2023-03-06T10:07:42.554Z,39.91
2023-03-06T10:10:15.416Z,40.24
2023-03-06T10:12:47.466Z,40.10
2023-03-06T10:15:19.063Z,39.98
2023-03-06T10:17:44.867Z,40.32
2023-03-06T10:20:27.909Z,40.10
2023-03-06T10:23:10.485Z,40.05
2023-03-06T10:25:45.958Z,40.06
2023-03-06T10:28:16.212Z,39.98
2023-03-06T10:30:58.016Z,40.15
2023-03-06T10:33:33.031Z,40.05
2023-03-06T10:35:58.762Z,40.03
2023-03-06T10:38:36.570Z,40.18
2023-03-06T10:46:38.380Z,40.17
2023-03-06T10:49:09.712Z,40.20
2023-03-06T10:51:35.516Z,40.03
2023-03-06T10:54:15.967Z,39.95
2023-03-06T10:56:43.831Z,40.29
2023-03-06T10:59:14.511Z,40.16
2023-03-06T11:01:42.002Z,40.50
2023-03-06T11:04:29.622Z,40.46
2023-03-06T11:07:17.243Z,40.48
2023-03-06T11:09:47.254Z,40.53
2023-03-06T11:15:24.518Z,40.61
2023-03-06T11:17:54.577Z,40.52
2023-03-06T11:23:05.280Z,40.58
2023-03-06T11:25:35.128Z,40.40
2023-03-06T11:28:05.605Z,40.37
2023-03-06T11:30:38.299Z,40.41
2023-03-06T11:33:13.884Z,40.41
2023-03-06T11:35:53.740Z,40.40
2023-03-06T11:38:25.599Z,40.53
2023-03-06T11:40:53.770Z,40.28
2023-03-06T11:43:24.911Z,39.96
2023-03-06T11:45:57.436Z,40.23
2023-03-06T11:48:28.803Z,39.97
2023-03-06T11:51:03.252Z,39.91
2023-03-06T11:53:35.015Z,39.88
2023-03-06T11:59:25.997Z,40.02
2023-03-06T12:05:02.762Z,40.39
2023-03-06T12:07:32.331Z,40.09
2023-03-06T12:10:18.703Z,40.32
2023-03-06T12:13:16.008Z,40.20
2023-03-06T12:16:05.154Z,40.18
2023-03-06T12:19:01.349Z,40.07
2023-03-06T12:21:55.690Z,40.03
2023-03-06T12:24:42.589Z,40.22
2023-03-06T12:27:16.892Z,40.21
2023-03-06T12:29:59.520Z,40.19
2023-03-06T12:32:44.173Z,40.12
2023-03-06T12:35:23.080Z,40.19
2023-03-06T12:40:49.781Z,40.37
2023-03-06T12:43:40.648Z,40.36
2023-03-06T12:46:13.459Z,40.30
2023-03-06T12:48:41.193Z,40.36
2023-03-06T12:51:08.810Z,40.46
2023-03-06T12:53:35.293Z,40.19
2023-03-06T12:56:01.744Z,40.29
2023-03-06T13:01:15.758Z,40.35
2023-03-06T13:04:19.261Z,41.30
2023-03-06T13:07:10.776Z,40.57
2023-03-06T13:10:13.195Z,40.39
2023-03-06T13:13:00.270Z,40.72
2023-03-06T13:15:45.079Z,40.59
2023-03-06T13:21:44.187Z,40.49
2023-03-06T13:24:22.844Z,40.46
2023-03-06T13:26:58.257Z,40.67
2023-03-06T13:32:17.322Z,40.54
2023-03-06T13:34:49.176Z,40.42
2023-03-06T13:42:31.022Z,40.43
2023-03-06T13:44:57.425Z,40.30
2023-03-06T13:47:31.686Z,40.37
2023-03-06T13:49:58.232Z,40.19
2023-03-06T13:55:12.447Z,40.60
2023-03-06T13:58:02.963Z,40.47
2023-03-06T14:00:52.364Z,40.30
2023-03-06T14:03:47.627Z,40.40
2023-03-06T14:06:37.593Z,40.20
2023-03-06T14:09:06.721Z,40.32
2023-03-06T14:11:33.348Z,40.47
2023-03-06T14:13:59.133Z,40.62
2023-03-06T14:16:32.660Z,40.31
2023-03-06T14:19:03.103Z,40.38
2023-03-06T14:21:31.531Z,40.33
2023-03-06T14:24:01.017Z,40.42
2023-03-06T14:26:28.285Z,40.40
2023-03-06T14:28:58.336Z,40.38
2023-03-06T14:31:27.179Z,40.46
2023-03-06T14:33:55.648Z,40.51
2023-03-06T14:36:22.025Z,40.32
2023-03-06T14:38:53.146Z,40.31
2023-03-06T14:41:25.125Z,35.97
2023-03-06T14:43:50.939Z,38.38
2023-03-06T14:46:20.219Z,39.80
2023-03-06T14:48:46.963Z,39.93
2023-03-06T14:51:16.742Z,39.98
2023-03-06T14:53:44.832Z,39.96
2023-03-06T14:56:15.894Z,39.90
2023-03-06T15:01:33.452Z,39.89
2023-03-06T15:04:00.133Z,39.95
2023-03-06T15:06:33.183Z,40.08
2023-03-06T15:09:07.996Z,39.91
2023-03-06T15:12:07.669Z,39.95
2023-03-06T15:14:36.486Z,40.06
2023-03-06T15:19:57.234Z,40.07
2023-03-06T15:22:34.155Z,40.19
2023-03-06T15:25:21.361Z,40.02
2023-03-06T15:27:49.655Z,40.21
2023-03-06T15:30:32.498Z,40.05
2023-03-06T15:33:22.110Z,40.02
2023-03-06T15:36:17.769Z,40.13
2023-03-06T15:38:44.761Z,40.12
2023-03-06T15:41:31.478Z,40.40
2023-03-06T15:43:57.875Z,40.07
2023-03-06T15:46:23.574Z,40.37
2023-03-06T15:48:54.123Z,40.18
2023-03-06T15:51:19.807Z,40.20
2023-03-06T15:53:45.500Z,40.12
2023-03-06T15:56:11.892Z,40.34
2023-03-06T15:58:38.401Z,40.37
2023-03-06T16:01:04.557Z,40.15
2023-03-06T16:03:30.393Z,40.23
2023-03-06T16:05:56.027Z,40.39
2023-03-06T16:08:21.678Z,40.20
2023-03-06T16:10:47.688Z,40.29
2023-03-06T16:13:19.177Z,40.23
2023-03-06T16:15:46.992Z,40.03
2023-03-06T16:18:12.640Z,40.25
2023-03-06T16:20:39.288Z,40.04
2023-03-06T16:23:09.544Z,40.29
2023-03-06T16:25:37.359Z,40.13
2023-03-06T16:28:04.036Z,40.41
2023-03-06T16:30:32.425Z,40.14
2023-03-06T16:32:58.044Z,40.20
2023-03-06T16:35:24.036Z,40.23
2023-03-06T16:37:49.806Z,40.08
2023-03-06T16:40:28.238Z,40.40
2023-03-06T16:42:55.284Z,40.19
2023-03-06T16:45:22.405Z,40.21
2023-03-06T16:47:48.280Z,40.32
2023-03-06T16:50:22.432Z,39.92
2023-03-06T16:52:48.447Z,40.13
2023-03-06T16:55:14.191Z,40.14
2023-03-06T16:57:39.846Z,40.20
2023-03-06T17:00:06.161Z,40.10
2023-03-06T17:02:32.078Z,40.04
2023-03-06T17:04:57.744Z,40.15
2023-03-06T17:07:23.405Z,40.27
2023-03-06T17:09:49.187Z,40.21
2023-03-06T17:12:15.054Z,40.13
2023-03-06T17:14:40.788Z,40.29
2023-03-06T17:17:06.548Z,40.24
2023-03-06T17:19:32.194Z,40.26
2023-03-06T17:21:57.831Z,40.24
2023-03-06T17:24:23.484Z,40.05
2023-03-06T17:26:49.129Z,40.20
2023-03-06T17:29:15.116Z,40.37
2023-03-06T17:31:40.803Z,40.38
2023-03-06T17:34:07.078Z,40.18
2023-03-06T17:36:32.757Z,40.23
2023-03-06T17:38:59.832Z,40.09
2023-03-06T17:41:25.699Z,40.00
2023-03-06T17:43:52.270Z,40.21
2023-03-06T17:46:18.336Z,40.26
2023-03-06T17:48:44.213Z,40.26
2023-03-06T17:51:10.595Z,40.10
2023-03-06T17:53:36.963Z,40.40
2023-03-06T17:56:04.502Z,40.04
2023-03-06T17:58:30.157Z,40.21
2023-03-06T18:00:55.801Z,40.12
2023-03-06T18:03:21.525Z,40.13
2023-03-06T18:05:47.499Z,40.25
2023-03-06T18:08:13.291Z,40.35
2023-03-06T18:10:40.165Z,40.25
2023-03-06T18:13:06.512Z,40.09
2023-03-06T18:15:32.178Z,40.32
2023-03-06T18:17:58.361Z,40.21
2023-03-06T18:20:24.567Z,40.13
2023-03-06T18:22:50.214Z,40.07
2023-03-06T18:25:16.602Z,40.16
2023-03-06T18:27:42.305Z,40.15
2023-03-06T18:30:08.809Z,40.32
2023-03-06T18:32:34.583Z,40.16
2023-03-06T18:35:00.269Z,39.92
2023-03-06T18:37:25.909Z,40.00
2023-03-06T18:39:51.554Z,40.16
2023-03-06T18:42:17.631Z,40.15
2023-03-06T18:44:46.863Z,40.17
2023-03-06T18:47:13.943Z,40.07
2023-03-06T18:49:40.577Z,40.08
2023-03-06T18:52:07.085Z,40.25
2023-03-06T18:54:32.764Z,40.14
2023-03-06T18:56:58.406Z,40.11
2023-03-06T18:59:25.062Z,40.21
2023-03-06T19:01:56.527Z,40.12
2023-03-06T19:04:23.324Z,40.19
2023-03-06T19:06:49.074Z,40.07
2023-03-06T19:09:14.718Z,40.01
2023-03-06T19:11:41.883Z,39.94
2023-03-06T19:14:07.810Z,40.02
2023-03-06T19:16:34.147Z,40.14
2023-03-06T19:18:59.827Z,40.08
2023-03-06T19:21:26.734Z,40.10
2023-03-06T19:23:52.721Z,40.03
2023-03-06T19:26:18.608Z,40.04
2023-03-06T19:28:45.069Z,40.07
2023-03-06T19:31:13.674Z,40.03
2023-03-06T19:33:39.826Z,39.96
2023-03-06T19:36:07.023Z,40.01
2023-03-06T19:38:32.763Z,40.00
2023-03-06T19:40:59.667Z,40.07
2023-03-06T19:43:26.146Z,40.10
2023-03-06T19:45:51.867Z,40.01
2023-03-06T19:48:17.547Z,39.94
2023-03-06T19:50:43.183Z,40.14
2023-03-06T19:53:10.236Z,39.99
2023-03-06T19:55:36.886Z,40.00
2023-03-06T19:58:03.091Z,40.05
2023-03-06T20:00:29.026Z,40.13
2023-03-06T20:02:55.021Z,39.93
2023-03-06T20:05:20.719Z,40.03
2023-03-06T20:07:46.418Z,40.18
2023-03-06T20:10:12.052Z,40.00
2023-03-06T20:12:37.997Z,40.18
2023-03-06T20:15:03.968Z,40.00
2023-03-06T20:17:31.837Z,39.89
2023-03-06T20:19:57.511Z,39.95
2023-03-06T20:22:23.155Z,40.04
2023-03-06T20:24:48.791Z,39.94
2023-03-06T20:27:14.435Z,40.05
2023-03-06T20:29:43.807Z,40.03
2023-03-06T20:32:09.877Z,39.90
2023-03-06T20:34:38.118Z,39.93
2023-03-06T20:37:04.993Z,39.85
2023-03-06T20:39:30.640Z,39.81
2023-03-06T20:41:58.195Z,39.88
2023-03-06T20:44:23.834Z,39.76
2023-03-06T20:46:51.139Z,39.93
2023-03-06T20:49:17.869Z,39.97
2023-03-06T20:51:43.909Z,39.82
2023-03-06T20:54:12.282Z,39.95
2023-03-06T20:56:38.807Z,39.80
2023-03-06T20:59:05.069Z,39.92
2023-03-06T21:01:32.603Z,40.02
2023-03-06T21:03:58.851Z,39.78
2023-03-06T21:06:25.565Z,39.79
2023-03-06T21:08:51.288Z,39.89
2023-03-06T21:11:17.319Z,39.86
2023-03-06T21:13:43.032Z,39.89
2023-03-06T21:16:11.316Z,40.07
2023-03-06T21:18:37.047Z,39.89
2023-03-06T21:21:07.165Z,39.90
2023-03-06T21:23:32.895Z,39.77
2023-03-06T21:25:58.699Z,39.89
2023-03-06T21:28:24.395Z,39.85
2023-03-06T21:30:50.052Z,39.83
2023-03-06T21:33:16.110Z,39.85
2023-03-06T21:35:44.460Z,40.07
2023-03-06T21:38:10.772Z,39.71
2023-03-06T21:40:36.822Z,39.75
2023-03-06T21:43:03.162Z,39.61
2023-03-06T21:45:29.528Z,39.96
2023-03-06T21:47:56.886Z,39.77
2023-03-06T21:50:22.936Z,40.00
2023-03-06T21:52:49.236Z,39.78
2023-03-06T21:55:15.326Z,39.86
2023-03-06T21:57:41.355Z,39.86
2023-03-06T22:00:10.321Z,39.73
2023-03-06T22:02:36.949Z,39.75
2023-03-06T22:05:03.280Z,39.95
2023-03-06T22:07:28.970Z,39.80
2023-03-06T22:09:54.601Z,39.82
2023-03-06T22:12:21.004Z,40.09
2023-03-06T22:14:46.658Z,39.87
2023-03-06T22:17:12.805Z,39.84
2023-03-06T22:19:38.674Z,39.92
2023-03-06T22:22:04.437Z,39.84
2023-03-06T22:24:31.099Z,39.81
2023-03-06T22:26:56.828Z,39.90
2023-03-06T22:29:23.240Z,39.65
2023-03-06T22:31:49.376Z,39.66
2023-03-06T22:34:15.386Z,39.79
2023-03-06T22:36:41.420Z,39.71
2023-03-06T22:39:07.144Z,39.87
2023-03-06T22:41:32.790Z,39.86
2023-03-06T22:44:00.470Z,39.71
2023-03-06T22:46:26.618Z,39.84
2023-03-06T22:48:52.392Z,39.62
2023-03-06T22:51:19.905Z,39.82
2023-03-06T22:53:46.404Z,39.73
2023-03-06T22:56:14.384Z,39.82
2023-03-06T22:58:40.079Z,39.99
2023-03-06T23:01:07.776Z,39.75
2023-03-06T23:03:35.734Z,39.74
2023-03-06T23:06:04.996Z,39.84
2023-03-06T23:08:30.636Z,39.70
2023-03-06T23:10:56.271Z,39.71
2023-03-06T23:13:22.318Z,39.50
2023-03-06T23:15:47.969Z,39.70
2023-03-06T23:18:13.622Z,39.68
2023-03-06T23:20:42.660Z,39.81
2023-03-06T23:23:08.680Z,39.72
2023-03-06T23:25:34.382Z,39.59
2023-03-06T23:28:00.051Z,39.60
2023-03-06T23:30:25.862Z,39.73
2023-03-06T23:32:51.502Z,39.65
2023-03-06T23:35:17.149Z,39.68
2023-03-06T23:37:42.855Z,39.83
2023-03-06T23:40:09.928Z,39.96
2023-03-06T23:42:35.707Z,39.61
2023-03-06T23:45:01.430Z,39.73
2023-03-06T23:47:31.160Z,39.68
2023-03-06T23:49:56.800Z,39.84
2023-03-06T23:52:22.481Z,39.72
2023-03-06T23:54:49.261Z,39.93
2023-03-06T23:57:15.284Z,39.64
2023-03-06T23:59:42.501Z,39.69
